SETOG ESSB-EFMA
Flight info
| Callsign | SETOG |
|---|---|
| Flight time | 0h 28m |
| Altitude | 17000 |
| Route | TOVRI N851 RIKUM |
| Aircraft | TBM9/L-SDFGRWY/S |
Departure
| Time | 2026-04-26 17:36 |
|---|---|
| Airport | Stockholm-Bromma Airport (ESSB) |
Arrival
| Time | 2026-04-26 18:05 |
|---|---|
| Airport | Mariehamn Airport (EFMA) |
| Time | Latitude | Longitude | Altitude | Speed | Heading |
|---|---|---|---|---|---|
| 2026-04-26 17:01 | 59.35262 | 17.95317 | 39 ft | 0 kts | 214° |
| 2026-04-26 17:33 | 59.35258 | 17.95316 | 39 ft | 2 kts | 173° |
| 2026-04-26 17:33 | 59.35254 | 17.95341 | 40 ft | 1 kts | 89° |
| 2026-04-26 17:34 | 59.35144 | 17.95495 | 34 ft | 17 kts | 143° |
| 2026-04-26 17:34 | 59.35073 | 17.95520 | 28 ft | 0 kts | 174° |
| 2026-04-26 17:35 | 59.35038 | 17.95528 | 26 ft | 10 kts | 173° |
| 2026-04-26 17:35 | 59.34978 | 17.95498 | 26 ft | 9 kts | 239° |
| 2026-04-26 17:35 | 59.35001 | 17.95389 | 25 ft | 10 kts | 304° |
| 2026-04-26 17:35 | 59.35018 | 17.95339 | 27 ft | 0 kts | 304° |
| 2026-04-26 17:36 | 59.35025 | 17.95321 | 26 ft | 15 kts | 304° |
| 2026-04-26 17:36 | 59.35223 | 17.94765 | 28 ft | 83 kts | 305° |
| 2026-04-26 17:36 | 59.35636 | 17.93621 | 243 ft | 120 kts | 306° |
| 2026-04-26 17:36 | 59.36148 | 17.92178 | 700 ft | 139 kts | 305° |
| 2026-04-26 17:37 | 59.36692 | 17.90520 | 1274 ft | 149 kts | 305° |
| 2026-04-26 17:37 | 59.37230 | 17.88834 | 2148 ft | 142 kts | 306° |
| 2026-04-26 17:37 | 59.37753 | 17.87167 | 2739 ft | 146 kts | 305° |
| 2026-04-26 17:38 | 59.38992 | 17.83271 | 3010 ft | 192 kts | 305° |
| 2026-04-26 17:38 | 59.39736 | 17.80964 | 2988 ft | 206 kts | 305° |
| 2026-04-26 17:38 | 59.40519 | 17.78557 | 2992 ft | 213 kts | 306° |
| 2026-04-26 17:38 | 59.41324 | 17.76075 | 2989 ft | 217 kts | 305° |
| 2026-04-26 17:39 | 59.42137 | 17.73552 | 2979 ft | 220 kts | 305° |
| 2026-04-26 17:39 | 59.42957 | 17.71016 | 2973 ft | 220 kts | 305° |
| 2026-04-26 17:39 | 59.43777 | 17.68493 | 2980 ft | 213 kts | 305° |
| 2026-04-26 17:39 | 59.44573 | 17.66049 | 3119 ft | 215 kts | 305° |
| 2026-04-26 17:40 | 59.45370 | 17.63598 | 3537 ft | 213 kts | 305° |
| 2026-04-26 17:40 | 59.45638 | 17.62770 | 3668 ft | 213 kts | 305° |
| 2026-04-26 17:40 | 59.46695 | 17.59510 | 4250 ft | 214 kts | 305° |
| 2026-04-26 17:40 | 59.47517 | 17.57060 | 4642 ft | 214 kts | 311° |
| 2026-04-26 17:41 | 59.48748 | 17.55488 | 4971 ft | 216 kts | 343° |
| 2026-04-26 17:41 | 59.50279 | 17.55418 | 4984 ft | 228 kts | 5° |
| 2026-04-26 17:41 | 59.51840 | 17.55917 | 4985 ft | 213 kts | 7° |
| 2026-04-26 17:41 | 59.53268 | 17.56416 | 5068 ft | 211 kts | 7° |
| 2026-04-26 17:42 | 59.54694 | 17.56930 | 5660 ft | 207 kts | 7° |
| 2026-04-26 17:42 | 59.56116 | 17.57459 | 6102 ft | 209 kts | 7° |
| 2026-04-26 17:42 | 59.57548 | 17.58000 | 6465 ft | 211 kts | 7° |
| 2026-04-26 17:42 | 59.58991 | 17.58539 | 6813 ft | 211 kts | 7° |
| 2026-04-26 17:43 | 59.60441 | 17.59090 | 7147 ft | 213 kts | 7° |
| 2026-04-26 17:43 | 59.61897 | 17.59650 | 7470 ft | 214 kts | 7° |
| 2026-04-26 17:43 | 59.63361 | 17.60223 | 7779 ft | 215 kts | 7° |
| 2026-04-26 17:43 | 59.64831 | 17.60797 | 8074 ft | 216 kts | 7° |
| 2026-04-26 17:44 | 59.66306 | 17.61379 | 8351 ft | 217 kts | 7° |
| 2026-04-26 17:44 | 59.67790 | 17.61971 | 8627 ft | 218 kts | 7° |
| 2026-04-26 17:44 | 59.69276 | 17.62570 | 8900 ft | 218 kts | 7° |
| 2026-04-26 17:44 | 59.70759 | 17.63263 | 9136 ft | 222 kts | 16° |
| 2026-04-26 17:45 | 59.72036 | 17.65091 | 9380 ft | 234 kts | 42° |
| 2026-04-26 17:45 | 59.72831 | 17.67963 | 9624 ft | 245 kts | 66° |
| 2026-04-26 17:45 | 59.73308 | 17.71218 | 9858 ft | 247 kts | 68° |
| 2026-04-26 17:45 | 59.73785 | 17.74502 | 10072 ft | 248 kts | 68° |
| 2026-04-26 17:46 | 59.74266 | 17.77782 | 10277 ft | 248 kts | 67° |
| 2026-04-26 17:46 | 59.74749 | 17.81074 | 10468 ft | 248 kts | 67° |
| 2026-04-26 17:46 | 59.75231 | 17.84360 | 10661 ft | 249 kts | 67° |
| 2026-04-26 17:46 | 59.75715 | 17.87662 | 10846 ft | 250 kts | 66° |
| 2026-04-26 17:47 | 59.76200 | 17.90975 | 11066 ft | 250 kts | 66° |
| 2026-04-26 17:47 | 59.76518 | 17.93173 | 11210 ft | 251 kts | 66° |
| 2026-04-26 17:47 | 59.77162 | 17.97572 | 11488 ft | 251 kts | 66° |
| 2026-04-26 17:47 | 59.77646 | 18.00905 | 11703 ft | 252 kts | 66° |
| 2026-04-26 17:48 | 59.78131 | 18.04255 | 11912 ft | 253 kts | 65° |
| 2026-04-26 17:48 | 59.78615 | 18.07613 | 12144 ft | 253 kts | 65° |
| 2026-04-26 17:48 | 59.79102 | 18.10982 | 12372 ft | 254 kts | 65° |
| 2026-04-26 17:48 | 59.79589 | 18.14358 | 12630 ft | 255 kts | 65° |
| 2026-04-26 17:49 | 59.80076 | 18.17746 | 12875 ft | 255 kts | 65° |
| 2026-04-26 17:49 | 59.80562 | 18.21142 | 13116 ft | 256 kts | 65° |
| 2026-04-26 17:49 | 59.81050 | 18.24546 | 13346 ft | 257 kts | 65° |
| 2026-04-26 17:49 | 59.81538 | 18.27961 | 13574 ft | 257 kts | 65° |
| 2026-04-26 17:50 | 59.82027 | 18.31391 | 13792 ft | 258 kts | 65° |
| 2026-04-26 17:50 | 59.82517 | 18.34830 | 13991 ft | 259 kts | 65° |
| 2026-04-26 17:50 | 59.83007 | 18.38286 | 14173 ft | 260 kts | 64° |
| 2026-04-26 17:50 | 59.83498 | 18.41748 | 14351 ft | 261 kts | 64° |
| 2026-04-26 17:51 | 59.83990 | 18.45231 | 14529 ft | 262 kts | 64° |
| 2026-04-26 17:51 | 59.84482 | 18.48722 | 14706 ft | 263 kts | 64° |
| 2026-04-26 17:51 | 59.84982 | 18.52267 | 14876 ft | 264 kts | 64° |
| 2026-04-26 17:51 | 59.85470 | 18.55744 | 15038 ft | 265 kts | 64° |
| 2026-04-26 17:52 | 59.85964 | 18.59272 | 15197 ft | 265 kts | 64° |
| 2026-04-26 17:52 | 59.86466 | 18.62866 | 15346 ft | 266 kts | 64° |
| 2026-04-26 17:52 | 59.86955 | 18.66374 | 15511 ft | 267 kts | 63° |
| 2026-04-26 17:52 | 59.87452 | 18.69940 | 15671 ft | 268 kts | 63° |
| 2026-04-26 17:53 | 59.87949 | 18.73518 | 15824 ft | 269 kts | 63° |
| 2026-04-26 17:53 | 59.88448 | 18.77112 | 15974 ft | 270 kts | 63° |
| 2026-04-26 17:53 | 59.88946 | 18.80717 | 16160 ft | 271 kts | 63° |
| 2026-04-26 17:54 | 59.89942 | 18.87964 | 16455 ft | 272 kts | 63° |
| 2026-04-26 17:54 | 59.90443 | 18.91599 | 16589 ft | 273 kts | 63° |
| 2026-04-26 17:54 | 59.90943 | 18.95246 | 16735 ft | 273 kts | 63° |
| 2026-04-26 17:54 | 59.91442 | 18.98908 | 16874 ft | 274 kts | 62° |
| 2026-04-26 17:55 | 59.91943 | 19.02578 | 17009 ft | 275 kts | 62° |
| 2026-04-26 17:55 | 59.92446 | 19.06267 | 17065 ft | 278 kts | 62° |
| 2026-04-26 17:55 | 59.92956 | 19.10008 | 17053 ft | 282 kts | 63° |
| 2026-04-26 17:55 | 59.93461 | 19.13780 | 17004 ft | 278 kts | 63° |
| 2026-04-26 17:56 | 59.93961 | 19.17501 | 16614 ft | 279 kts | 63° |
| 2026-04-26 17:56 | 59.94963 | 19.24924 | 15904 ft | 275 kts | 65° |
| 2026-04-26 17:57 | 59.96006 | 19.32130 | 14897 ft | 266 kts | 69° |
| 2026-04-26 17:57 | 59.96185 | 19.35875 | 13907 ft | 266 kts | 78° |
| 2026-04-26 17:57 | 59.96325 | 19.39477 | 12664 ft | 262 kts | 78° |
| 2026-04-26 17:57 | 59.96467 | 19.43146 | 11515 ft | 260 kts | 79° |
| 2026-04-26 17:58 | 59.96851 | 19.53608 | 8512 ft | 245 kts | 79° |
| 2026-04-26 17:59 | 59.97094 | 19.60268 | 6554 ft | 237 kts | 78° |
| 2026-04-26 17:59 | 59.97213 | 19.63527 | 5577 ft | 233 kts | 79° |
| 2026-04-26 17:59 | 59.97328 | 19.66723 | 4616 ft | 229 kts | 79° |
| 2026-04-26 17:59 | 59.97434 | 19.69877 | 3650 ft | 226 kts | 78° |
| 2026-04-26 18:00 | 59.97676 | 19.72861 | 2655 ft | 213 kts | 65° |
| 2026-04-26 18:00 | 59.98262 | 19.75410 | 2003 ft | 189 kts | 49° |
| 2026-04-26 18:00 | 59.99006 | 19.77379 | 1989 ft | 168 kts | 37° |
| 2026-04-26 18:00 | 59.99848 | 19.78854 | 1991 ft | 156 kts | 27° |
| 2026-04-26 18:01 | 60.00762 | 19.79927 | 1991 ft | 150 kts | 18° |
| 2026-04-26 18:01 | 60.01706 | 19.80729 | 1996 ft | 145 kts | 16° |
| 2026-04-26 18:01 | 60.02606 | 19.81511 | 1961 ft | 141 kts | 16° |
| 2026-04-26 18:01 | 60.03499 | 19.82280 | 1865 ft | 139 kts | 15° |
| 2026-04-26 18:02 | 60.04372 | 19.83034 | 1715 ft | 127 kts | 15° |
| 2026-04-26 18:02 | 60.04831 | 19.83454 | 1694 ft | 96 kts | 13° |
| 2026-04-26 18:02 | 60.05621 | 19.84129 | 1521 ft | 93 kts | 14° |
| 2026-04-26 18:02 | 60.06235 | 19.84659 | 1368 ft | 100 kts | 14° |
| 2026-04-26 18:03 | 60.06892 | 19.85222 | 1200 ft | 103 kts | 14° |
| 2026-04-26 18:03 | 60.07541 | 19.85783 | 1037 ft | 101 kts | 14° |
| 2026-04-26 18:03 | 60.08199 | 19.86345 | 859 ft | 105 kts | 16° |
| 2026-04-26 18:03 | 60.08877 | 19.86930 | 683 ft | 107 kts | 15° |
| 2026-04-26 18:04 | 60.09571 | 19.87527 | 500 ft | 108 kts | 16° |
| 2026-04-26 18:04 | 60.10260 | 19.88122 | 344 ft | 110 kts | 18° |
| 2026-04-26 18:04 | 60.10969 | 19.88729 | 209 ft | 110 kts | 24° |
| 2026-04-26 18:05 | 60.12221 | 19.89819 | 11 ft | 68 kts | 21° |
| 2026-04-26 18:05 | 60.12550 | 19.90103 | 11 ft | 26 kts | 39° |
| 2026-04-26 18:05 | 60.12533 | 19.90323 | 12 ft | 6 kts | 114° |
| 2026-04-26 18:05 | 60.12531 | 19.90334 | 12 ft | 0 kts | 111° |
| 2026-04-26 18:06 | 60.12530 | 19.90337 | 12 ft | 2 kts | 112° |
| 2026-04-26 18:06 | 60.12497 | 19.90487 | 12 ft | 13 kts | 119° |
| 2026-04-26 18:06 | 60.12442 | 19.90571 | 11 ft | 13 kts | 118° |
| 2026-04-26 18:07 | 60.12435 | 19.90660 | 11 ft | 0 kts | 23° |